sensor_id;sensor_type;location;lat;lon;timestamp;temperature;humidity
47521;DHT22;32291;52.010;4.446;2022-07-05T00:00:04;16.90;99.90
47521;DHT22;32291;52.010;4.446;2022-07-05T00:01:07;16.90;99.90
47521;DHT22;32291;52.010;4.446;2022-07-05T00:02:09;16.90;99.90
47521;DHT22;32291;52.010;4.446;2022-07-05T00:03:15;16.90;99.90
47521;DHT22;32291;52.010;4.446;2022-07-05T00:04:17;16.90;99.90
47521;DHT22;32291;52.010;4.446;2022-07-05T00:05:19;16.90;99.90
47521;DHT22;32291;52.010;4.446;2022-07-05T00:06:21;16.90;99.90
47521;DHT22;32291;52.010;4.446;2022-07-05T00:07:23;16.90;99.90
47521;DHT22;32291;52.010;4.446;2022-07-05T00:08:25;16.90;99.90
47521;DHT22;32291;52.010;4.446;2022-07-05T00:09:28;16.90;99.90
47521;DHT22;32291;52.010;4.446;2022-07-05T00:10:31;16.90;99.90
47521;DHT22;32291;52.010;4.446;2022-07-05T00:11:35;16.50;99.90
47521;DHT22;32291;52.010;4.446;2022-07-05T00:12:37;16.90;99.90
47521;DHT22;32291;52.010;4.446;2022-07-05T00:13:39;16.90;99.90
47521;DHT22;32291;52.010;4.446;2022-07-05T00:14:45;16.90;99.90
47521;DHT22;32291;52.010;4.446;2022-07-05T00:15:48;17.90;99.90
47521;DHT22;32291;52.010;4.446;2022-07-05T00:16:50;16.90;99.90
47521;DHT22;32291;52.010;4.446;2022-07-05T00:17:52;16.90;99.90
47521;DHT22;32291;52.010;4.446;2022-07-05T00:18:54;16.90;99.90
47521;DHT22;32291;52.010;4.446;2022-07-05T00:19:56;16.90;99.90
47521;DHT22;32291;52.010;4.446;2022-07-05T00:20:59;16.90;99.90
47521;DHT22;32291;52.010;4.446;2022-07-05T00:22:03;16.90;99.90
47521;DHT22;32291;52.010;4.446;2022-07-05T00:23:05;16.90;99.90
47521;DHT22;32291;52.010;4.446;2022-07-05T00:24:07;16.90;99.90
47521;DHT22;32291;52.010;4.446;2022-07-05T00:25:09;16.90;99.90
47521;DHT22;32291;52.010;4.446;2022-07-05T00:26:11;16.90;99.90
47521;DHT22;32291;52.010;4.446;2022-07-05T00:27:13;16.90;99.90
47521;DHT22;32291;52.010;4.446;2022-07-05T00:28:15;16.90;99.90
47521;DHT22;32291;52.010;4.446;2022-07-05T00:29:17;16.80;99.90
47521;DHT22;32291;52.010;4.446;2022-07-05T00:30:20;16.90;99.90
47521;DHT22;32291;52.010;4.446;2022-07-05T00:31:22;16.80;99.90
47521;DHT22;32291;52.010;4.446;2022-07-05T00:32:24;16.00;99.90
47521;DHT22;32291;52.010;4.446;2022-07-05T00:33:26;16.80;99.90
47521;DHT22;32291;52.010;4.446;2022-07-05T00:34:28;16.80;99.90
47521;DHT22;32291;52.010;4.446;2022-07-05T00:35:30;16.90;99.90
47521;DHT22;32291;52.010;4.446;2022-07-05T00:36:32;16.80;99.90
47521;DHT22;32291;52.010;4.446;2022-07-05T00:37:35;16.80;99.90
47521;DHT22;32291;52.010;4.446;2022-07-05T00:38:37;16.80;99.90
47521;DHT22;32291;52.010;4.446;2022-07-05T00:39:39;16.80;99.90
47521;DHT22;32291;52.010;4.446;2022-07-05T00:40:42;16.80;99.90
47521;DHT22;32291;52.010;4.446;2022-07-05T00:41:45;16.80;99.90
47521;DHT22;32291;52.010;4.446;2022-07-05T00:42:46;16.80;99.90
47521;DHT22;32291;52.010;4.446;2022-07-05T00:43:58;16.70;99.90
47521;DHT22;32291;52.010;4.446;2022-07-05T00:45:06;16.70;99.90
47521;DHT22;32291;52.010;4.446;2022-07-05T00:46:09;16.70;99.90
47521;DHT22;32291;52.010;4.446;2022-07-05T00:47:12;16.70;99.90
47521;DHT22;32291;52.010;4.446;2022-07-05T00:48:14;16.60;99.90
47521;DHT22;32291;52.010;4.446;2022-07-05T00:49:16;16.60;99.90
47521;DHT22;32291;52.010;4.446;2022-07-05T00:50:19;16.60;99.90
47521;DHT22;32291;52.010;4.446;2022-07-05T00:51:22;16.60;99.90
47521;DHT22;32291;52.010;4.446;2022-07-05T00:52:25;17.70;99.90
47521;DHT22;32291;52.010;4.446;2022-07-05T00:53:27;16.60;99.90
47521;DHT22;32291;52.010;4.446;2022-07-05T00:54:34;16.60;99.90
47521;DHT22;32291;52.010;4.446;2022-07-05T00:55:38;16.60;99.90
47521;DHT22;32291;52.010;4.446;2022-07-05T00:56:41;16.60;99.90
47521;DHT22;32291;52.010;4.446;2022-07-05T00:57:44;16.60;99.90
47521;DHT22;32291;52.010;4.446;2022-07-05T00:58:46;16.50;99.90
47521;DHT22;32291;52.010;4.446;2022-07-05T00:59:50;16.50;99.90
47521;DHT22;32291;52.010;4.446;2022-07-05T01:00:53;16.50;99.90
47521;DHT22;32291;52.010;4.446;2022-07-05T01:01:58;16.50;99.90
47521;DHT22;32291;52.010;4.446;2022-07-05T01:03:00;16.50;99.90
47521;DHT22;32291;52.010;4.446;2022-07-05T01:04:03;16.40;99.90
47521;DHT22;32291;52.010;4.446;2022-07-05T01:05:05;16.40;99.90
47521;DHT22;32291;52.010;4.446;2022-07-05T01:06:10;16.40;99.90
47521;DHT22;32291;52.010;4.446;2022-07-05T01:07:13;16.40;99.90
47521;DHT22;32291;52.010;4.446;2022-07-05T01:08:15;16.40;99.90
47521;DHT22;32291;52.010;4.446;2022-07-05T01:09:19;16.30;99.90
47521;DHT22;32291;52.010;4.446;2022-07-05T01:10:24;16.30;99.90
47521;DHT22;32291;52.010;4.446;2022-07-05T01:11:26;16.30;99.90
47521;DHT22;32291;52.010;4.446;2022-07-05T01:12:28;16.30;99.90
47521;DHT22;32291;52.010;4.446;2022-07-05T01:13:31;16.30;99.90
47521;DHT22;32291;52.010;4.446;2022-07-05T01:14:37;16.20;99.90
47521;DHT22;32291;52.010;4.446;2022-07-05T01:15:41;16.20;99.90
47521;DHT22;32291;52.010;4.446;2022-07-05T01:16:44;16.20;99.90
47521;DHT22;32291;52.010;4.446;2022-07-05T01:17:47;16.10;99.90
47521;DHT22;32291;52.010;4.446;2022-07-05T01:18:50;16.10;99.90
47521;DHT22;32291;52.010;4.446;2022-07-05T01:19:53;16.10;99.90
47521;DHT22;32291;52.010;4.446;2022-07-05T01:20:56;16.10;99.90
47521;DHT22;32291;52.010;4.446;2022-07-05T01:22:01;16.10;99.90
47521;DHT22;32291;52.010;4.446;2022-07-05T01:23:11;16.00;99.90
47521;DHT22;32291;52.010;4.446;2022-07-05T01:24:15;16.00;99.90
47521;DHT22;32291;52.010;4.446;2022-07-05T01:25:21;16.00;99.90
47521;DHT22;32291;52.010;4.446;2022-07-05T01:26:29;16.00;99.90
47521;DHT22;32291;52.010;4.446;2022-07-05T01:27:34;16.00;99.90
47521;DHT22;32291;52.010;4.446;2022-07-05T01:28:36;15.90;99.90
47521;DHT22;32291;52.010;4.446;2022-07-05T01:29:38;15.90;99.90
47521;DHT22;32291;52.010;4.446;2022-07-05T01:30:42;15.90;99.90
47521;DHT22;32291;52.010;4.446;2022-07-05T01:31:44;15.90;99.90
47521;DHT22;32291;52.010;4.446;2022-07-05T01:32:47;15.90;99.90
47521;DHT22;32291;52.010;4.446;2022-07-05T01:33:49;15.80;99.90
47521;DHT22;32291;52.010;4.446;2022-07-05T01:34:54;15.80;99.90
47521;DHT22;32291;52.010;4.446;2022-07-05T01:35:57;15.80;99.90
47521;DHT22;32291;52.010;4.446;2022-07-05T01:37:00;15.80;99.90
47521;DHT22;32291;52.010;4.446;2022-07-05T01:38:05;15.80;99.90
47521;DHT22;32291;52.010;4.446;2022-07-05T01:39:08;15.80;99.90
47521;DHT22;32291;52.010;4.446;2022-07-05T01:40:10;15.80;99.90
47521;DHT22;32291;52.010;4.446;2022-07-05T01:41:13;15.80;99.90
47521;DHT22;32291;52.010;4.446;2022-07-05T01:42:15;15.80;99.90
47521;DHT22;32291;52.010;4.446;2022-07-05T01:43:19;15.80;99.90
47521;DHT22;32291;52.010;4.446;2022-07-05T01:44:22;15.80;99.90
47521;DHT22;32291;52.010;4.446;2022-07-05T01:45:25;15.70;99.90
47521;DHT22;32291;52.010;4.446;2022-07-05T01:47:04;15.70;99.90
47521;DHT22;32291;52.010;4.446;2022-07-05T01:48:16;15.70;99.90
47521;DHT22;32291;52.010;4.446;2022-07-05T01:49:23;15.70;99.90
47521;DHT22;32291;52.010;4.446;2022-07-05T01:50:29;15.70;99.90
47521;DHT22;32291;52.010;4.446;2022-07-05T01:51:41;15.70;99.90
47521;DHT22;32291;52.010;4.446;2022-07-05T01:52:51;15.70;99.90
47521;DHT22;32291;52.010;4.446;2022-07-05T01:53:54;15.70;99.90
47521;DHT22;32291;52.010;4.446;2022-07-05T01:54:57;15.70;99.90
47521;DHT22;32291;52.010;4.446;2022-07-05T01:56:01;15.60;99.90
47521;DHT22;32291;52.010;4.446;2022-07-05T01:57:06;15.60;99.90
47521;DHT22;32291;52.010;4.446;2022-07-05T01:58:09;15.60;99.90
47521;DHT22;32291;52.010;4.446;2022-07-05T01:59:12;15.60;99.90
47521;DHT22;32291;52.010;4.446;2022-07-05T02:00:14;15.60;99.90
47521;DHT22;32291;52.010;4.446;2022-07-05T02:01:37;15.60;99.90
47521;DHT22;32291;52.010;4.446;2022-07-05T02:02:41;15.60;99.90
47521;DHT22;32291;52.010;4.446;2022-07-05T02:03:44;15.50;99.90
47521;DHT22;32291;52.010;4.446;2022-07-05T02:04:47;15.50;99.90
47521;DHT22;32291;52.010;4.446;2022-07-05T02:05:50;15.50;99.90
47521;DHT22;32291;52.010;4.446;2022-07-05T02:06:53;15.50;99.90
47521;DHT22;32291;52.010;4.446;2022-07-05T02:07:55;15.50;99.90
47521;DHT22;32291;52.010;4.446;2022-07-05T02:08:57;15.50;99.90
47521;DHT22;32291;52.010;4.446;2022-07-05T02:10:00;15.40;99.90
47521;DHT22;32291;52.010;4.446;2022-07-05T02:11:03;15.40;99.90
47521;DHT22;32291;52.010;4.446;2022-07-05T02:12:06;15.40;99.90
47521;DHT22;32291;52.010;4.446;2022-07-05T02:13:09;15.40;99.90
47521;DHT22;32291;52.010;4.446;2022-07-05T02:14:12;15.40;99.90
47521;DHT22;32291;52.010;4.446;2022-07-05T02:15:16;15.40;99.90
47521;DHT22;32291;52.010;4.446;2022-07-05T02:16:22;15.30;99.90
47521;DHT22;32291;52.010;4.446;2022-07-05T02:17:26;15.40;99.90
47521;DHT22;32291;52.010;4.446;2022-07-05T02:18:27;15.30;99.90
47521;DHT22;32291;52.010;4.446;2022-07-05T02:19:29;15.30;99.90
47521;DHT22;32291;52.010;4.446;2022-07-05T02:20:32;15.30;99.90
47521;DHT22;32291;52.010;4.446;2022-07-05T02:21:36;15.30;99.90
47521;DHT22;32291;52.010;4.446;2022-07-05T02:22:38;15.30;99.90
47521;DHT22;32291;52.010;4.446;2022-07-05T02:23:40;15.30;99.90
47521;DHT22;32291;52.010;4.446;2022-07-05T02:24:42;15.30;99.90
47521;DHT22;32291;52.010;4.446;2022-07-05T02:25:44;15.40;99.90
47521;DHT22;32291;52.010;4.446;2022-07-05T02:26:48;15.30;99.90
47521;DHT22;32291;52.010;4.446;2022-07-05T02:27:54;15.30;99.90
47521;DHT22;32291;52.010;4.446;2022-07-05T02:28:57;15.30;99.90
47521;DHT22;32291;52.010;4.446;2022-07-05T02:30:03;15.20;99.90
47521;DHT22;32291;52.010;4.446;2022-07-05T02:31:06;15.20;99.90
47521;DHT22;32291;52.010;4.446;2022-07-05T02:32:09;15.20;99.90
47521;DHT22;32291;52.010;4.446;2022-07-05T02:33:11;15.20;99.90
47521;DHT22;32291;52.010;4.446;2022-07-05T02:34:13;15.10;99.90
47521;DHT22;32291;52.010;4.446;2022-07-05T02:35:15;15.20;99.90
47521;DHT22;32291;52.010;4.446;2022-07-05T02:36:19;15.10;99.90
47521;DHT22;32291;52.010;4.446;2022-07-05T02:37:21;15.10;99.90
47521;DHT22;32291;52.010;4.446;2022-07-05T02:38:24;15.10;99.90
47521;DHT22;32291;52.010;4.446;2022-07-05T02:39:26;15.10;99.90
47521;DHT22;32291;52.010;4.446;2022-07-05T02:40:28;15.10;99.90
47521;DHT22;32291;52.010;4.446;2022-07-05T02:41:30;15.10;99.90
47521;DHT22;32291;52.010;4.446;2022-07-05T02:42:34;15.10;99.90
47521;DHT22;32291;52.010;4.446;2022-07-05T02:43:37;15.10;99.90
47521;DHT22;32291;52.010;4.446;2022-07-05T02:44:41;15.10;99.90
47521;DHT22;32291;52.010;4.446;2022-07-05T02:45:46;15.10;99.90
47521;DHT22;32291;52.010;4.446;2022-07-05T02:46:47;15.10;99.90
47521;DHT22;32291;52.010;4.446;2022-07-05T02:47:49;15.10;99.90
47521;DHT22;32291;52.010;4.446;2022-07-05T02:48:52;15.10;99.90
47521;DHT22;32291;52.010;4.446;2022-07-05T02:49:54;15.10;99.90
47521;DHT22;32291;52.010;4.446;2022-07-05T02:50:56;15.10;99.90
47521;DHT22;32291;52.010;4.446;2022-07-05T02:51:59;15.10;99.90
47521;DHT22;32291;52.010;4.446;2022-07-05T02:53:02;15.10;99.90
47521;DHT22;32291;52.010;4.446;2022-07-05T02:54:04;15.10;99.90
47521;DHT22;32291;52.010;4.446;2022-07-05T02:55:06;15.10;99.90
47521;DHT22;32291;52.010;4.446;2022-07-05T02:56:08;15.10;99.90
47521;DHT22;32291;52.010;4.446;2022-07-05T02:57:10;15.10;99.90
47521;DHT22;32291;52.010;4.446;2022-07-05T02:58:15;15.20;99.90
47521;DHT22;32291;52.010;4.446;2022-07-05T02:59:20;15.20;99.90
47521;DHT22;32291;52.010;4.446;2022-07-05T03:00:22;15.10;99.90
47521;DHT22;32291;52.010;4.446;2022-07-05T03:01:24;15.20;99.90
47521;DHT22;32291;52.010;4.446;2022-07-05T03:02:26;15.10;99.90
47521;DHT22;32291;52.010;4.446;2022-07-05T03:03:27;15.20;99.90
47521;DHT22;32291;52.010;4.446;2022-07-05T03:04:29;15.20;99.90
47521;DHT22;32291;52.010;4.446;2022-07-05T03:05:31;15.20;99.90
47521;DHT22;32291;52.010;4.446;2022-07-05T03:06:34;15.20;99.90
47521;DHT22;32291;52.010;4.446;2022-07-05T03:07:38;15.20;99.90
47521;DHT22;32291;52.010;4.446;2022-07-05T03:08:41;15.20;99.90
47521;DHT22;32291;52.010;4.446;2022-07-05T03:09:43;15.20;99.90
47521;DHT22;32291;52.010;4.446;2022-07-05T03:10:45;15.30;99.90
47521;DHT22;32291;52.010;4.446;2022-07-05T03:11:47;15.20;99.90
47521;DHT22;32291;52.010;4.446;2022-07-05T03:12:50;15.20;99.90
47521;DHT22;32291;52.010;4.446;2022-07-05T03:13:52;15.30;99.90
47521;DHT22;32291;52.010;4.446;2022-07-05T03:14:54;15.30;99.90
47521;DHT22;32291;52.010;4.446;2022-07-05T03:15:56;15.30;99.90
47521;DHT22;32291;52.010;4.446;2022-07-05T03:16:57;15.30;99.90
47521;DHT22;32291;52.010;4.446;2022-07-05T03:18:00;15.30;99.90
47521;DHT22;32291;52.010;4.446;2022-07-05T03:19:02;15.30;99.90
47521;DHT22;32291;52.010;4.446;2022-07-05T03:20:07;15.30;99.90
47521;DHT22;32291;52.010;4.446;2022-07-05T03:21:10;15.30;99.90
47521;DHT22;32291;52.010;4.446;2022-07-05T03:22:16;15.30;99.90
47521;DHT22;32291;52.010;4.446;2022-07-05T03:23:18;15.40;99.90
47521;DHT22;32291;52.010;4.446;2022-07-05T03:24:20;15.40;99.90
47521;DHT22;32291;52.010;4.446;2022-07-05T03:25:22;15.40;99.90
47521;DHT22;32291;52.010;4.446;2022-07-05T03:26:24;15.40;99.90
47521;DHT22;32291;52.010;4.446;2022-07-05T03:27:26;15.40;99.90
47521;DHT22;32291;52.010;4.446;2022-07-05T03:28:32;15.40;99.90
47521;DHT22;32291;52.010;4.446;2022-07-05T03:29:34;15.40;99.90
47521;DHT22;32291;52.010;4.446;2022-07-05T03:30:36;15.40;99.90
47521;DHT22;32291;52.010;4.446;2022-07-05T03:31:41;15.40;99.90
47521;DHT22;32291;52.010;4.446;2022-07-05T03:32:43;15.40;99.90
47521;DHT22;32291;52.010;4.446;2022-07-05T03:33:45;15.40;99.90
47521;DHT22;32291;52.010;4.446;2022-07-05T03:34:47;15.40;99.90
47521;DHT22;32291;52.010;4.446;2022-07-05T03:35:50;15.40;99.90
47521;DHT22;32291;52.010;4.446;2022-07-05T03:36:55;15.40;99.90
47521;DHT22;32291;52.010;4.446;2022-07-05T03:37:57;15.40;99.90
47521;DHT22;32291;52.010;4.446;2022-07-05T03:38:59;15.40;99.90
47521;DHT22;32291;52.010;4.446;2022-07-05T03:40:04;15.40;99.90
47521;DHT22;32291;52.010;4.446;2022-07-05T03:41:07;15.40;99.90
47521;DHT22;32291;52.010;4.446;2022-07-05T03:42:10;15.40;99.90
47521;DHT22;32291;52.010;4.446;2022-07-05T03:43:11;15.40;99.90
47521;DHT22;32291;52.010;4.446;2022-07-05T03:44:13;15.40;99.90
47521;DHT22;32291;52.010;4.446;2022-07-05T03:45:15;15.40;99.90
47521;DHT22;32291;52.010;4.446;2022-07-05T03:46:17;15.40;99.90
47521;DHT22;32291;52.010;4.446;2022-07-05T03:47:20;15.40;99.90
47521;DHT22;32291;52.010;4.446;2022-07-05T03:48:23;15.40;99.90
47521;DHT22;32291;52.010;4.446;2022-07-05T03:49:26;15.40;99.90
47521;DHT22;32291;52.010;4.446;2022-07-05T03:50:28;15.40;99.90
47521;DHT22;32291;52.010;4.446;2022-07-05T03:51:30;15.40;99.90
47521;DHT22;32291;52.010;4.446;2022-07-05T03:52:36;15.40;99.90
47521;DHT22;32291;52.010;4.446;2022-07-05T03:53:38;15.40;99.90
47521;DHT22;32291;52.010;4.446;2022-07-05T03:54:40;15.40;99.90
47521;DHT22;32291;52.010;4.446;2022-07-05T03:55:48;15.40;99.90
47521;DHT22;32291;52.010;4.446;2022-07-05T03:56:50;15.40;99.90
47521;DHT22;32291;52.010;4.446;2022-07-05T03:57:52;15.40;99.90
47521;DHT22;32291;52.010;4.446;2022-07-05T03:58:55;15.30;99.90
47521;DHT22;32291;52.010;4.446;2022-07-05T03:59:57;15.30;99.90
47521;DHT22;32291;52.010;4.446;2022-07-05T04:00:59;15.30;99.90
47521;DHT22;32291;52.010;4.446;2022-07-05T04:02:03;15.30;99.90
47521;DHT22;32291;52.010;4.446;2022-07-05T04:03:06;15.30;99.90
47521;DHT22;32291;52.010;4.446;2022-07-05T04:04:08;15.30;99.90
47521;DHT22;32291;52.010;4.446;2022-07-05T04:05:10;15.30;99.90
47521;DHT22;32291;52.010;4.446;2022-07-05T04:06:15;15.30;99.90
47521;DHT22;32291;52.010;4.446;2022-07-05T04:07:17;15.30;99.90
47521;DHT22;32291;52.010;4.446;2022-07-05T04:08:19;15.30;99.90
47521;DHT22;32291;52.010;4.446;2022-07-05T04:09:21;15.30;99.90
47521;DHT22;32291;52.010;4.446;2022-07-05T04:10:26;15.30;99.90
47521;DHT22;32291;52.010;4.446;2022-07-05T04:11:34;15.30;99.90
47521;DHT22;32291;52.010;4.446;2022-07-05T04:12:36;15.30;99.90
47521;DHT22;32291;52.010;4.446;2022-07-05T04:13:37;15.30;99.90
47521;DHT22;32291;52.010;4.446;2022-07-05T04:14:40;15.30;99.90
47521;DHT22;32291;52.010;4.446;2022-07-05T04:15:46;15.30;99.90
47521;DHT22;32291;52.010;4.446;2022-07-05T04:16:48;15.30;99.90
47521;DHT22;32291;52.010;4.446;2022-07-05T04:17:52;14.40;99.90
47521;DHT22;32291;52.010;4.446;2022-07-05T04:18:57;15.30;99.90
47521;DHT22;32291;52.010;4.446;2022-07-05T04:19:59;15.30;99.90
47521;DHT22;32291;52.010;4.446;2022-07-05T04:21:04;15.30;99.90
47521;DHT22;32291;52.010;4.446;2022-07-05T04:22:10;15.40;99.90
47521;DHT22;32291;52.010;4.446;2022-07-05T04:23:15;15.40;99.90
47521;DHT22;32291;52.010;4.446;2022-07-05T04:24:20;15.40;99.90
47521;DHT22;32291;52.010;4.446;2022-07-05T04:25:23;15.50;99.90
47521;DHT22;32291;52.010;4.446;2022-07-05T04:26:30;15.40;99.90
47521;DHT22;32291;52.010;4.446;2022-07-05T04:28:00;15.40;99.90
47521;DHT22;32291;52.010;4.446;2022-07-05T04:29:43;15.40;99.90
47521;DHT22;32291;52.010;4.446;2022-07-05T04:30:53;15.40;99.90
47521;DHT22;32291;52.010;4.446;2022-07-05T04:31:57;15.40;99.90
47521;DHT22;32291;52.010;4.446;2022-07-05T04:32:59;15.40;99.90
47521;DHT22;32291;52.010;4.446;2022-07-05T04:34:02;15.40;99.90
47521;DHT22;32291;52.010;4.446;2022-07-05T04:35:07;15.40;99.90
47521;DHT22;32291;52.010;4.446;2022-07-05T04:36:10;15.40;99.90
47521;DHT22;32291;52.010;4.446;2022-07-05T04:37:12;15.40;99.90
47521;DHT22;32291;52.010;4.446;2022-07-05T04:38:14;15.40;99.90
47521;DHT22;32291;52.010;4.446;2022-07-05T04:39:16;15.30;99.90
47521;DHT22;32291;52.010;4.446;2022-07-05T04:40:18;15.40;99.90
47521;DHT22;32291;52.010;4.446;2022-07-05T04:41:20;15.40;99.90
47521;DHT22;32291;52.010;4.446;2022-07-05T04:42:22;15.40;99.90
47521;DHT22;32291;52.010;4.446;2022-07-05T04:43:24;15.40;99.90
47521;DHT22;32291;52.010;4.446;2022-07-05T04:44:26;15.40;99.90
47521;DHT22;32291;52.010;4.446;2022-07-05T04:45:28;15.40;99.90
47521;DHT22;32291;52.010;4.446;2022-07-05T04:46:30;15.40;99.90
47521;DHT22;32291;52.010;4.446;2022-07-05T04:47:32;15.40;99.90
47521;DHT22;32291;52.010;4.446;2022-07-05T04:48:35;15.00;99.90
47521;DHT22;32291;52.010;4.446;2022-07-05T04:49:38;15.50;99.90
47521;DHT22;32291;52.010;4.446;2022-07-05T04:50:40;15.50;99.90
47521;DHT22;32291;52.010;4.446;2022-07-05T04:51:42;15.50;99.90
47521;DHT22;32291;52.010;4.446;2022-07-05T04:52:44;15.60;99.90
47521;DHT22;32291;52.010;4.446;2022-07-05T04:53:46;15.60;99.90
47521;DHT22;32291;52.010;4.446;2022-07-05T04:54:48;15.60;99.90
47521;DHT22;32291;52.010;4.446;2022-07-05T04:55:50;15.70;99.90
47521;DHT22;32291;52.010;4.446;2022-07-05T04:56:53;15.60;99.90
47521;DHT22;32291;52.010;4.446;2022-07-05T04:57:54;15.70;99.90
47521;DHT22;32291;52.010;4.446;2022-07-05T04:58:56;15.70;99.90
47521;DHT22;32291;52.010;4.446;2022-07-05T04:59:58;15.70;99.90
47521;DHT22;32291;52.010;4.446;2022-07-05T05:01:00;15.80;99.90
47521;DHT22;32291;52.010;4.446;2022-07-05T05:02:02;15.80;99.90
47521;DHT22;32291;52.010;4.446;2022-07-05T05:03:04;15.80;99.90
47521;DHT22;32291;52.010;4.446;2022-07-05T05:04:06;15.80;99.90
47521;DHT22;32291;52.010;4.446;2022-07-05T05:05:08;15.90;99.90
47521;DHT22;32291;52.010;4.446;2022-07-05T05:06:11;15.90;99.90
47521;DHT22;32291;52.010;4.446;2022-07-05T05:07:15;15.90;99.90
47521;DHT22;32291;52.010;4.446;2022-07-05T05:08:16;15.90;99.90
47521;DHT22;32291;52.010;4.446;2022-07-05T05:09:19;16.00;99.90
47521;DHT22;32291;52.010;4.446;2022-07-05T05:10:22;16.00;99.90
47521;DHT22;32291;52.010;4.446;2022-07-05T05:11:24;16.00;99.90
47521;DHT22;32291;52.010;4.446;2022-07-05T05:12:26;16.10;99.90
47521;DHT22;32291;52.010;4.446;2022-07-05T05:13:28;16.20;99.90
47521;DHT22;32291;52.010;4.446;2022-07-05T05:14:30;16.20;99.90
47521;DHT22;32291;52.010;4.446;2022-07-05T05:15:32;16.20;99.90
47521;DHT22;32291;52.010;4.446;2022-07-05T05:16:35;16.30;99.90
47521;DHT22;32291;52.010;4.446;2022-07-05T05:17:39;16.30;99.90
47521;DHT22;32291;52.010;4.446;2022-07-05T05:18:43;16.40;99.90
47521;DHT22;32291;52.010;4.446;2022-07-05T05:19:45;16.40;99.90
47521;DHT22;32291;52.010;4.446;2022-07-05T05:20:48;16.50;99.90
47521;DHT22;32291;52.010;4.446;2022-07-05T05:21:50;16.50;99.90
47521;DHT22;32291;52.010;4.446;2022-07-05T05:22:52;16.60;99.90
47521;DHT22;32291;52.010;4.446;2022-07-05T05:23:54;16.60;99.90
47521;DHT22;32291;52.010;4.446;2022-07-05T05:24:56;16.60;99.90
47521;DHT22;32291;52.010;4.446;2022-07-05T05:25:58;16.60;99.90
47521;DHT22;32291;52.010;4.446;2022-07-05T05:27:03;16.70;99.90
47521;DHT22;32291;52.010;4.446;2022-07-05T05:28:06;16.70;99.90
47521;DHT22;32291;52.010;4.446;2022-07-05T05:29:07;16.70;99.90
47521;DHT22;32291;52.010;4.446;2022-07-05T05:30:10;16.80;99.90
47521;DHT22;32291;52.010;4.446;2022-07-05T05:31:14;16.80;99.90
47521;DHT22;32291;52.010;4.446;2022-07-05T05:32:15;16.90;99.90
47521;DHT22;32291;52.010;4.446;2022-07-05T05:33:18;16.90;99.90
47521;DHT22;32291;52.010;4.446;2022-07-05T05:34:19;16.90;99.90
47521;DHT22;32291;52.010;4.446;2022-07-05T05:35:22;17.00;99.90
47521;DHT22;32291;52.010;4.446;2022-07-05T05:36:25;17.00;99.90
47521;DHT22;32291;52.010;4.446;2022-07-05T05:37:27;17.00;99.90
47521;DHT22;32291;52.010;4.446;2022-07-05T05:38:29;17.00;99.90
47521;DHT22;32291;52.010;4.446;2022-07-05T05:39:31;17.10;99.90
47521;DHT22;32291;52.010;4.446;2022-07-05T05:40:34;17.10;99.90
47521;DHT22;32291;52.010;4.446;2022-07-05T05:41:39;17.10;99.90
47521;DHT22;32291;52.010;4.446;2022-07-05T05:42:41;17.20;99.90
47521;DHT22;32291;52.010;4.446;2022-07-05T05:43:44;17.20;99.90
47521;DHT22;32291;52.010;4.446;2022-07-05T05:44:45;17.20;99.90
47521;DHT22;32291;52.010;4.446;2022-07-05T05:45:48;17.20;99.90
47521;DHT22;32291;52.010;4.446;2022-07-05T05:46:50;17.20;99.90
47521;DHT22;32291;52.010;4.446;2022-07-05T05:47:56;17.30;99.90
47521;DHT22;32291;52.010;4.446;2022-07-05T05:49:01;17.30;99.90
47521;DHT22;32291;52.010;4.446;2022-07-05T05:50:03;17.30;99.90
47521;DHT22;32291;52.010;4.446;2022-07-05T05:51:07;17.30;99.90
47521;DHT22;32291;52.010;4.446;2022-07-05T05:52:09;17.40;99.90
47521;DHT22;32291;52.010;4.446;2022-07-05T05:53:11;17.40;99.90
47521;DHT22;32291;52.010;4.446;2022-07-05T05:54:13;17.50;99.90
47521;DHT22;32291;52.010;4.446;2022-07-05T05:55:16;17.50;99.90
47521;DHT22;32291;52.010;4.446;2022-07-05T05:56:19;17.50;99.90
47521;DHT22;32291;52.010;4.446;2022-07-05T05:57:21;17.60;99.90
47521;DHT22;32291;52.010;4.446;2022-07-05T05:58:24;17.60;99.90
47521;DHT22;32291;52.010;4.446;2022-07-05T05:59:27;17.60;99.90
47521;DHT22;32291;52.010;4.446;2022-07-05T06:00:29;17.70;99.90
47521;DHT22;32291;52.010;4.446;2022-07-05T06:01:31;17.70;99.90
47521;DHT22;32291;52.010;4.446;2022-07-05T06:02:33;17.80;99.90
47521;DHT22;32291;52.010;4.446;2022-07-05T06:03:35;17.70;99.90
47521;DHT22;32291;52.010;4.446;2022-07-05T06:04:37;17.80;99.90
47521;DHT22;32291;52.010;4.446;2022-07-05T06:05:39;17.80;99.90
47521;DHT22;32291;52.010;4.446;2022-07-05T06:06:42;17.80;99.90
47521;DHT22;32291;52.010;4.446;2022-07-05T06:08:55;17.90;99.90
47521;DHT22;32291;52.010;4.446;2022-07-05T06:09:57;17.90;99.90
47521;DHT22;32291;52.010;4.446;2022-07-05T06:11:00;17.90;99.90
47521;DHT22;32291;52.010;4.446;2022-07-05T06:12:05;17.90;99.90
47521;DHT22;32291;52.010;4.446;2022-07-05T06:13:10;17.90;99.90
47521;DHT22;32291;52.010;4.446;2022-07-05T06:14:15;17.90;99.90
47521;DHT22;32291;52.010;4.446;2022-07-05T06:15:19;18.00;99.90
47521;DHT22;32291;52.010;4.446;2022-07-05T06:16:21;18.00;99.90
47521;DHT22;32291;52.010;4.446;2022-07-05T06:17:23;18.00;99.90
47521;DHT22;32291;52.010;4.446;2022-07-05T06:18:25;18.00;99.90
47521;DHT22;32291;52.010;4.446;2022-07-05T06:19:27;18.00;99.90
47521;DHT22;32291;52.010;4.446;2022-07-05T06:20:31;18.10;99.90
47521;DHT22;32291;52.010;4.446;2022-07-05T06:21:36;18.10;99.90
47521;DHT22;32291;52.010;4.446;2022-07-05T06:22:39;18.10;99.90
47521;DHT22;32291;52.010;4.446;2022-07-05T06:23:41;18.10;99.90
47521;DHT22;32291;52.010;4.446;2022-07-05T06:24:43;18.10;99.90
47521;DHT22;32291;52.010;4.446;2022-07-05T06:25:45;18.10;99.90
47521;DHT22;32291;52.010;4.446;2022-07-05T06:26:47;18.10;99.90
47521;DHT22;32291;52.010;4.446;2022-07-05T06:27:56;18.20;99.90
47521;DHT22;32291;52.010;4.446;2022-07-05T06:29:04;18.20;99.90
47521;DHT22;32291;52.010;4.446;2022-07-05T06:30:07;18.30;99.90
47521;DHT22;32291;52.010;4.446;2022-07-05T06:31:11;18.30;99.90
47521;DHT22;32291;52.010;4.446;2022-07-05T06:32:13;18.30;99.90
47521;DHT22;32291;52.010;4.446;2022-07-05T06:33:15;18.40;99.90
47521;DHT22;32291;52.010;4.446;2022-07-05T06:34:17;18.40;99.90
47521;DHT22;32291;52.010;4.446;2022-07-05T06:35:19;18.40;99.90
47521;DHT22;32291;52.010;4.446;2022-07-05T06:36:22;18.50;99.90
47521;DHT22;32291;52.010;4.446;2022-07-05T06:37:24;18.50;99.90
47521;DHT22;32291;52.010;4.446;2022-07-05T06:38:26;18.50;99.90
47521;DHT22;32291;52.010;4.446;2022-07-05T06:39:28;18.60;99.90
47521;DHT22;32291;52.010;4.446;2022-07-05T06:40:37;18.60;99.90